Terminal Aerodrome Forecast
Issued by NWS

Home | Current Version | Previous Version | Text Only | Print | Product List | Glossary Off
Versions: 1 2 3 4 5 6 7 8 9 10 11 12 13 14 15 16 17

000
FTUS43 KUNR 120400 AAD
TAFGCC
TAF AMD
KGCC 120411Z 1204/1224 31006KT P6SM BKN008 OVC025
     FM120700 20004KT 5SM BR BKN012
     FM121000 19006KT P6SM SKC
      TEMPO 1210/1213 5SM BR=

USA.gov is the U.S. government's official web portal to all federal, state and local government web resources and services.